KHLB/HLB METAR and TAF weather

Enter ICAO airport designator
Station Type Date Time Source
KHLB METAR 2019/10/15 08:35 UTC NOAA

KHLB 150835Z AUTO 00000KT 10SM CLR 03/03 A3008 RMK A01


Station Type Date Time Source
KHLB Decoded METAR 2019/10/15 08:35 UTC NOAA

Station name not available
Oct 15, 2019 - 04:35 AM EDT / 2019.10.15 0835 UTC
Wind: Calm:0
Visibility: 10 mile(s):0
Sky conditions: clear
Temperature: 37 F (3 C)
Dew Point: 37 F (3 C)
Relative Humidity: 100%
Pressure (altimeter): 30.08 in. Hg (1018 hPa)
ob: KHLB 150835Z AUTO 00000KT 10SM CLR 03/03 A3008 RMK A01
cycle: 8

Station Type Date Time Source
KHLB TAF UTC NOAA

Error!

Example: see airport list